sensor_id;sensor_type;location;lat;lon;timestamp;P1;durP1;ratioP1;P2;durP2;ratioP2
16673;SDS011;8450;52.654;10.326;2023-06-26T07:07:28;6.87;;;6.37;;
16673;SDS011;8450;52.654;10.326;2023-06-26T07:09:55;6.93;;;6.20;;
16673;SDS011;8450;52.654;10.326;2023-06-26T07:12:23;6.90;;;6.30;;
16673;SDS011;8450;52.654;10.326;2023-06-26T07:14:49;6.70;;;6.10;;
16673;SDS011;8450;52.654;10.326;2023-06-26T07:17:15;7.40;;;6.13;;
16673;SDS011;8450;52.654;10.326;2023-06-26T07:19:40;6.90;;;6.30;;
16673;SDS011;8450;52.654;10.326;2023-06-26T07:22:07;7.37;;;6.77;;
16673;SDS011;8450;52.654;10.326;2023-06-26T07:24:33;6.83;;;6.23;;
16673;SDS011;8450;52.654;10.326;2023-06-26T07:26:59;7.03;;;6.43;;
16673;SDS011;8450;52.654;10.326;2023-06-26T07:29:26;6.63;;;6.13;;
16673;SDS011;8450;52.654;10.326;2023-06-26T07:31:51;6.73;;;6.07;;
16673;SDS011;8450;52.654;10.326;2023-06-26T07:34:18;6.97;;;6.37;;
16673;SDS011;8450;52.654;10.326;2023-06-26T07:36:44;6.72;;;6.22;;
16673;SDS011;8450;52.654;10.326;2023-06-26T07:39:10;6.93;;;6.43;;
16673;SDS011;8450;52.654;10.326;2023-06-26T07:41:36;7.85;;;7.00;;
16673;SDS011;8450;52.654;10.326;2023-06-26T07:44:02;5.97;;;5.50;;
16673;SDS011;8450;52.654;10.326;2023-06-26T07:46:29;6.93;;;6.30;;
16673;SDS011;8450;52.654;10.326;2023-06-26T07:48:55;7.53;;;6.10;;
16673;SDS011;8450;52.654;10.326;2023-06-26T07:51:22;6.82;;;6.32;;
16673;SDS011;8450;52.654;10.326;2023-06-26T07:53:49;7.88;;;6.97;;
16673;SDS011;8450;52.654;10.326;2023-06-26T07:56:14;7.25;;;6.65;;
16673;SDS011;8450;52.654;10.326;2023-06-26T07:58:40;7.28;;;6.68;;
16673;SDS011;8450;52.654;10.326;2023-06-26T08:01:06;9.00;;;6.60;;
16673;SDS011;8450;52.654;10.326;2023-06-26T08:03:31;7.38;;;6.68;;
16673;SDS011;8450;52.654;10.326;2023-06-26T08:05:57;6.82;;;6.22;;
16673;SDS011;8450;52.654;10.326;2023-06-26T08:08:23;6.97;;;6.38;;
16673;SDS011;8450;52.654;10.326;2023-06-26T08:10:48;7.57;;;6.65;;
16673;SDS011;8450;52.654;10.326;2023-06-26T08:13:14;10.52;;;7.03;;
16673;SDS011;8450;52.654;10.326;2023-06-26T08:15:39;6.90;;;6.30;;
16673;SDS011;8450;52.654;10.326;2023-06-26T08:18:05;8.00;;;6.75;;
16673;SDS011;8450;52.654;10.326;2023-06-26T08:20:31;10.57;;;6.65;;
16673;SDS011;8450;52.654;10.326;2023-06-26T08:22:56;7.07;;;6.50;;
16673;SDS011;8450;52.654;10.326;2023-06-26T08:25:22;7.22;;;6.70;;
16673;SDS011;8450;52.654;10.326;2023-06-26T08:27:47;7.13;;;6.57;;
16673;SDS011;8450;52.654;10.326;2023-06-26T08:30:13;7.18;;;6.50;;
16673;SDS011;8450;52.654;10.326;2023-06-26T08:32:39;8.10;;;7.32;;
16673;SDS011;8450;52.654;10.326;2023-06-26T08:35:05;6.57;;;6.07;;
16673;SDS011;8450;52.654;10.326;2023-06-26T08:37:32;6.95;;;6.38;;
16673;SDS011;8450;52.654;10.326;2023-06-26T08:40:00;6.93;;;6.32;;
16673;SDS011;8450;52.654;10.326;2023-06-26T08:42:27;6.40;;;5.93;;
16673;SDS011;8450;52.654;10.326;2023-06-26T08:44:53;7.57;;;6.90;;
16673;SDS011;8450;52.654;10.326;2023-06-26T08:47:19;7.40;;;6.68;;
16673;SDS011;8450;52.654;10.326;2023-06-26T08:52:22;7.40;;;6.90;;
16673;SDS011;8450;52.654;10.326;2023-06-26T08:54:54;8.15;;;7.32;;
16673;SDS011;8450;52.654;10.326;2023-06-26T08:57:24;7.93;;;7.32;;
16673;SDS011;8450;52.654;10.326;2023-06-26T08:59:52;8.32;;;7.63;;
16673;SDS011;8450;52.654;10.326;2023-06-26T09:02:18;7.88;;;7.28;;
16673;SDS011;8450;52.654;10.326;2023-06-26T09:04:46;7.93;;;7.32;;
16673;SDS011;8450;52.654;10.326;2023-06-26T09:07:13;7.25;;;6.65;;
16673;SDS011;8450;52.654;10.326;2023-06-26T09:09:39;7.40;;;6.80;;
16673;SDS011;8450;52.654;10.326;2023-06-26T09:12:04;7.68;;;7.07;;
16673;SDS011;8450;52.654;10.326;2023-06-26T09:14:30;8.60;;;7.90;;
16673;SDS011;8450;52.654;10.326;2023-06-26T09:16:56;9.05;;;8.25;;
16673;SDS011;8450;52.654;10.326;2023-06-26T09:19:22;8.68;;;7.97;;
16673;SDS011;8450;52.654;10.326;2023-06-26T09:21:48;8.73;;;8.02;;
16673;SDS011;8450;52.654;10.326;2023-06-26T09:24:16;7.40;;;6.80;;
16673;SDS011;8450;52.654;10.326;2023-06-26T09:26:42;7.65;;;7.05;;
16673;SDS011;8450;52.654;10.326;2023-06-26T09:29:09;7.57;;;6.97;;
16673;SDS011;8450;52.654;10.326;2023-06-26T09:31:36;8.57;;;7.88;;
16673;SDS011;8450;52.654;10.326;2023-06-26T09:34:02;8.98;;;8.27;;
16673;SDS011;8450;52.654;10.326;2023-06-26T09:36:29;8.25;;;7.55;;
16673;SDS011;8450;52.654;10.326;2023-06-26T09:38:58;9.35;;;8.40;;
16673;SDS011;8450;52.654;10.326;2023-06-26T09:41:24;8.23;;;7.53;;
16673;SDS011;8450;52.654;10.326;2023-06-26T09:43:50;8.50;;;7.80;;
16673;SDS011;8450;52.654;10.326;2023-06-26T09:46:29;8.65;;;7.80;;
16673;SDS011;8450;52.654;10.326;2023-06-26T09:49:08;8.70;;;8.00;;
16673;SDS011;8450;52.654;10.326;2023-06-26T09:51:36;8.55;;;7.85;;
16673;SDS011;8450;52.654;10.326;2023-06-26T09:54:04;8.77;;;7.97;;
16673;SDS011;8450;52.654;10.326;2023-06-26T09:56:30;10.50;;;9.50;;
16673;SDS011;8450;52.654;10.326;2023-06-26T09:58:57;9.23;;;8.32;;
16673;SDS011;8450;52.654;10.326;2023-06-26T10:01:28;9.27;;;8.48;;
16673;SDS011;8450;52.654;10.326;2023-06-26T10:03:55;10.60;;;9.70;;
16673;SDS011;8450;52.654;10.326;2023-06-26T10:06:27;9.95;;;9.10;;
16673;SDS011;8450;52.654;10.326;2023-06-26T10:08:56;9.82;;;8.93;;
16673;SDS011;8450;52.654;10.326;2023-06-26T10:11:24;10.32;;;9.32;;
16673;SDS011;8450;52.654;10.326;2023-06-26T10:13:55;9.23;;;8.43;;
16673;SDS011;8450;52.654;10.326;2023-06-26T10:16:23;10.18;;;9.18;;
16673;SDS011;8450;52.654;10.326;2023-06-26T10:18:56;10.52;;;9.65;;
16673;SDS011;8450;52.654;10.326;2023-06-26T10:21:28;10.65;;;9.65;;
16673;SDS011;8450;52.654;10.326;2023-06-26T10:23:56;10.80;;;9.90;;
16673;SDS011;8450;52.654;10.326;2023-06-26T10:26:22;11.20;;;10.18;;
16673;SDS011;8450;52.654;10.326;2023-06-26T10:28:51;11.45;;;10.45;;
16673;SDS011;8450;52.654;10.326;2023-06-26T10:31:19;10.95;;;9.82;;
16673;SDS011;8450;52.654;10.326;2023-06-26T10:33:47;10.88;;;10.00;;
16673;SDS011;8450;52.654;10.326;2023-06-26T10:36:36;10.70;;;9.82;;
16673;SDS011;8450;52.654;10.326;2023-06-26T10:39:03;10.38;;;9.52;;
16673;SDS011;8450;52.654;10.326;2023-06-26T10:41:36;11.07;;;9.95;;
16673;SDS011;8450;52.654;10.326;2023-06-26T10:44:16;11.10;;;10.10;;
16673;SDS011;8450;52.654;10.326;2023-06-26T10:46:49;11.43;;;10.32;;
16673;SDS011;8450;52.654;10.326;2023-06-26T10:49:17;13.52;;;12.20;;
16673;SDS011;8450;52.654;10.326;2023-06-26T10:51:50;14.57;;;12.82;;
16673;SDS011;8450;52.654;10.326;2023-06-26T10:54:17;15.77;;;14.15;;
16673;SDS011;8450;52.654;10.326;2023-06-26T10:56:45;17.92;;;16.48;;
16673;SDS011;8450;52.654;10.326;2023-06-26T10:59:16;17.60;;;16.15;;
16673;SDS011;8450;52.654;10.326;2023-06-26T11:01:44;15.68;;;14.35;;
16673;SDS011;8450;52.654;10.326;2023-06-26T11:04:11;16.23;;;13.32;;
16673;SDS011;8450;52.654;10.326;2023-06-26T11:06:39;14.07;;;12.88;;
16673;SDS011;8450;52.654;10.326;2023-06-26T11:14:20;12.00;;;10.73;;
16673;SDS011;8450;52.654;10.326;2023-06-26T11:16:47;11.63;;;10.53;;
16673;SDS011;8450;52.654;10.326;2023-06-26T11:19:14;9.53;;;8.77;;
16673;SDS011;8450;52.654;10.326;2023-06-26T11:21:41;9.23;;;8.43;;
16673;SDS011;8450;52.654;10.326;2023-06-26T11:24:07;8.80;;;7.87;;
16673;SDS011;8450;52.654;10.326;2023-06-26T11:26:41;9.87;;;8.87;;
16673;SDS011;8450;52.654;10.326;2023-06-26T11:29:07;14.97;;;9.00;;
16673;SDS011;8450;52.654;10.326;2023-06-26T11:31:35;9.63;;;8.20;;
16673;SDS011;8450;52.654;10.326;2023-06-26T11:34:03;9.33;;;8.53;;
16673;SDS011;8450;52.654;10.326;2023-06-26T11:36:30;11.87;;;8.70;;
16673;SDS011;8450;52.654;10.326;2023-06-26T11:38:57;10.93;;;9.87;;
16673;SDS011;8450;52.654;10.326;2023-06-26T11:41:25;10.27;;;9.37;;
16673;SDS011;8450;52.654;10.326;2023-06-26T11:43:53;9.50;;;8.60;;
16673;SDS011;8450;52.654;10.326;2023-06-26T11:46:19;10.43;;;9.03;;
16673;SDS011;8450;52.654;10.326;2023-06-26T11:48:45;10.57;;;9.67;;
16673;SDS011;8450;52.654;10.326;2023-06-26T11:51:14;11.40;;;10.23;;
16673;SDS011;8450;52.654;10.326;2023-06-26T11:53:41;10.27;;;9.23;;
16673;SDS011;8450;52.654;10.326;2023-06-26T11:56:17;12.23;;;9.43;;
16673;SDS011;8450;52.654;10.326;2023-06-26T12:01:35;9.97;;;9.07;;
16673;SDS011;8450;52.654;10.326;2023-06-26T12:04:02;13.63;;;10.37;;
16673;SDS011;8450;52.654;10.326;2023-06-26T12:06:30;10.33;;;9.30;;
16673;SDS011;8450;52.654;10.326;2023-06-26T12:08:58;11.50;;;9.97;;
16673;SDS011;8450;52.654;10.326;2023-06-26T12:11:25;12.43;;;10.70;;
16673;SDS011;8450;52.654;10.326;2023-06-26T12:13:53;11.50;;;10.40;;
16673;SDS011;8450;52.654;10.326;2023-06-26T12:16:19;10.80;;;9.87;;
16673;SDS011;8450;52.654;10.326;2023-06-26T12:18:46;11.20;;;10.20;;
16673;SDS011;8450;52.654;10.326;2023-06-26T12:21:28;11.07;;;10.07;;
16673;SDS011;8450;52.654;10.326;2023-06-26T12:24:09;10.63;;;8.90;;
16673;SDS011;8450;52.654;10.326;2023-06-26T12:26:40;12.10;;;9.30;;
16673;SDS011;8450;52.654;10.326;2023-06-26T12:29:30;11.23;;;8.60;;
16673;SDS011;8450;52.654;10.326;2023-06-26T12:31:57;10.30;;;8.73;;
16673;SDS011;8450;52.654;10.326;2023-06-26T12:34:27;7.57;;;6.87;;
16673;SDS011;8450;52.654;10.326;2023-06-26T12:37:04;10.13;;;7.70;;
16673;SDS011;8450;52.654;10.326;2023-06-26T12:42:49;6.27;;;5.23;;
16673;SDS011;8450;52.654;10.326;2023-06-26T12:45:15;6.63;;;6.03;;
16673;SDS011;8450;52.654;10.326;2023-06-26T12:47:41;6.83;;;5.60;;
16673;SDS011;8450;52.654;10.326;2023-06-26T12:50:07;8.57;;;5.83;;
16673;SDS011;8450;52.654;10.326;2023-06-26T12:52:32;7.50;;;5.30;;
16673;SDS011;8450;52.654;10.326;2023-06-26T12:54:58;6.53;;;5.43;;
16673;SDS011;8450;52.654;10.326;2023-06-26T12:57:24;6.30;;;5.13;;
16673;SDS011;8450;52.654;10.326;2023-06-26T12:59:51;7.63;;;5.50;;
16673;SDS011;8450;52.654;10.326;2023-06-26T13:02:17;6.50;;;5.33;;
16673;SDS011;8450;52.654;10.326;2023-06-26T13:04:42;6.83;;;5.13;;
16673;SDS011;8450;52.654;10.326;2023-06-26T13:07:10;7.57;;;5.27;;
16673;SDS011;8450;52.654;10.326;2023-06-26T13:09:36;5.77;;;5.23;;
16673;SDS011;8450;52.654;10.326;2023-06-26T13:12:02;6.17;;;4.97;;
16673;SDS011;8450;52.654;10.326;2023-06-26T13:14:29;5.03;;;4.50;;
16673;SDS011;8450;52.654;10.326;2023-06-26T13:16:55;4.40;;;3.97;;
16673;SDS011;8450;52.654;10.326;2023-06-26T13:19:20;7.20;;;4.97;;
16673;SDS011;8450;52.654;10.326;2023-06-26T13:21:46;6.70;;;4.40;;
16673;SDS011;8450;52.654;10.326;2023-06-26T13:24:12;6.87;;;4.60;;
16673;SDS011;8450;52.654;10.326;2023-06-26T13:26:38;6.37;;;4.63;;
16673;SDS011;8450;52.654;10.326;2023-06-26T13:29:04;5.33;;;4.50;;
16673;SDS011;8450;52.654;10.326;2023-06-26T13:31:30;5.00;;;4.47;;
16673;SDS011;8450;52.654;10.326;2023-06-26T13:33:57;6.70;;;4.30;;
16673;SDS011;8450;52.654;10.326;2023-06-26T13:36:23;6.15;;;4.75;;
16673;SDS011;8450;52.654;10.326;2023-06-26T13:38:49;5.03;;;4.53;;
16673;SDS011;8450;52.654;10.326;2023-06-26T13:41:20;5.85;;;4.35;;
16673;SDS011;8450;52.654;10.326;2023-06-26T13:43:49;5.87;;;4.20;;
16673;SDS011;8450;52.654;10.326;2023-06-26T13:46:15;4.00;;;3.60;;
16673;SDS011;8450;52.654;10.326;2023-06-26T13:48:42;5.23;;;3.40;;
16673;SDS011;8450;52.654;10.326;2023-06-26T13:51:08;4.70;;;3.93;;
16673;SDS011;8450;52.654;10.326;2023-06-26T13:53:33;5.10;;;3.63;;
16673;SDS011;8450;52.654;10.326;2023-06-26T13:55:59;5.85;;;3.78;;
16673;SDS011;8450;52.654;10.326;2023-06-26T13:58:24;4.30;;;3.33;;
16673;SDS011;8450;52.654;10.326;2023-06-26T14:00:52;4.35;;;3.15;;
16673;SDS011;8450;52.654;10.326;2023-06-26T14:03:18;5.90;;;3.38;;
16673;SDS011;8450;52.654;10.326;2023-06-26T14:05:44;5.50;;;2.97;;
16673;SDS011;8450;52.654;10.326;2023-06-26T14:08:09;3.73;;;2.77;;
16673;SDS011;8450;52.654;10.326;2023-06-26T14:10:35;5.60;;;3.10;;
16673;SDS011;8450;52.654;10.326;2023-06-26T14:13:01;5.60;;;2.97;;
16673;SDS011;8450;52.654;10.326;2023-06-26T14:15:28;7.07;;;3.35;;
16673;SDS011;8450;52.654;10.326;2023-06-26T14:17:54;5.17;;;3.10;;
16673;SDS011;8450;52.654;10.326;2023-06-26T14:20:21;6.35;;;2.97;;
16673;SDS011;8450;52.654;10.326;2023-06-26T14:22:47;5.78;;;3.10;;
16673;SDS011;8450;52.654;10.326;2023-06-26T14:25:13;3.80;;;2.78;;
16673;SDS011;8450;52.654;10.326;2023-06-26T14:27:39;8.45;;;3.05;;
16673;SDS011;8450;52.654;10.326;2023-06-26T14:30:06;5.70;;;2.75;;
16673;SDS011;8450;52.654;10.326;2023-06-26T14:32:33;3.25;;;2.95;;
16673;SDS011;8450;52.654;10.326;2023-06-26T14:34:59;5.55;;;3.33;;
16673;SDS011;8450;52.654;10.326;2023-06-26T14:37:25;4.13;;;3.10;;
16673;SDS011;8450;52.654;10.326;2023-06-26T14:39:51;4.82;;;2.85;;
16673;SDS011;8450;52.654;10.326;2023-06-26T14:42:17;3.10;;;2.65;;
16673;SDS011;8450;52.654;10.326;2023-06-26T14:44:43;4.82;;;3.20;;
16673;SDS011;8450;52.654;10.326;2023-06-26T14:47:11;5.80;;;3.10;;
16673;SDS011;8450;52.654;10.326;2023-06-26T14:49:37;22.52;;;4.50;;
16673;SDS011;8450;52.654;10.326;2023-06-26T14:52:03;5.95;;;3.28;;
16673;SDS011;8450;52.654;10.326;2023-06-26T14:54:29;4.25;;;3.00;;
16673;SDS011;8450;52.654;10.326;2023-06-26T14:56:54;3.90;;;2.80;;
16673;SDS011;8450;52.654;10.326;2023-06-26T14:59:20;3.03;;;2.58;;
16673;SDS011;8450;52.654;10.326;2023-06-26T15:01:45;6.88;;;3.17;;
16673;SDS011;8450;52.654;10.326;2023-06-26T15:04:11;4.07;;;2.53;;
16673;SDS011;8450;52.654;10.326;2023-06-26T15:06:37;3.95;;;2.70;;
16673;SDS011;8450;52.654;10.326;2023-06-26T15:09:02;4.10;;;2.97;;
16673;SDS011;8450;52.654;10.326;2023-06-26T15:11:28;3.47;;;2.88;;
16673;SDS011;8450;52.654;10.326;2023-06-26T15:13:55;3.40;;;2.92;;
16673;SDS011;8450;52.654;10.326;2023-06-26T15:16:21;3.72;;;2.90;;
16673;SDS011;8450;52.654;10.326;2023-06-26T15:18:46;4.10;;;2.72;;
16673;SDS011;8450;52.654;10.326;2023-06-26T15:21:12;4.05;;;2.40;;
16673;SDS011;8450;52.654;10.326;2023-06-26T15:23:37;5.25;;;2.75;;
16673;SDS011;8450;52.654;10.326;2023-06-26T15:26:03;4.20;;;2.97;;
16673;SDS011;8450;52.654;10.326;2023-06-26T15:28:29;4.35;;;2.65;;
16673;SDS011;8450;52.654;10.326;2023-06-26T15:30:55;3.33;;;2.78;;
16673;SDS011;8450;52.654;10.326;2023-06-26T15:33:20;4.88;;;2.97;;
16673;SDS011;8450;52.654;10.326;2023-06-26T15:35:46;3.33;;;2.47;;
16673;SDS011;8450;52.654;10.326;2023-06-26T15:38:11;4.97;;;2.70;;
16673;SDS011;8450;52.654;10.326;2023-06-26T15:40:37;3.35;;;2.80;;
16673;SDS011;8450;52.654;10.326;2023-06-26T15:43:02;3.17;;;2.50;;
16673;SDS011;8450;52.654;10.326;2023-06-26T15:45:28;3.70;;;2.83;;
16673;SDS011;8450;52.654;10.326;2023-06-26T15:47:54;3.88;;;3.00;;
16673;SDS011;8450;52.654;10.326;2023-06-26T15:50:20;3.22;;;2.70;;
16673;SDS011;8450;52.654;10.326;2023-06-26T15:52:46;3.20;;;2.72;;
16673;SDS011;8450;52.654;10.326;2023-06-26T15:55:12;4.25;;;3.13;;
16673;SDS011;8450;52.654;10.326;2023-06-26T15:57:38;4.00;;;2.83;;
16673;SDS011;8450;52.654;10.326;2023-06-26T16:00:04;4.32;;;2.67;;
16673;SDS011;8450;52.654;10.326;2023-06-26T16:02:37;3.25;;;2.65;;
16673;SDS011;8450;52.654;10.326;2023-06-26T16:05:03;4.05;;;3.03;;
16673;SDS011;8450;52.654;10.326;2023-06-26T16:07:30;4.70;;;3.15;;
16673;SDS011;8450;52.654;10.326;2023-06-26T16:09:56;4.57;;;3.28;;
16673;SDS011;8450;52.654;10.326;2023-06-26T16:12:22;3.22;;;2.83;;
16673;SDS011;8450;52.654;10.326;2023-06-26T16:14:48;4.47;;;2.85;;
16673;SDS011;8450;52.654;10.326;2023-06-26T16:17:14;4.68;;;3.03;;
16673;SDS011;8450;52.654;10.326;2023-06-26T16:19:40;2.87;;;2.60;;
16673;SDS011;8450;52.654;10.326;2023-06-26T16:22:06;3.83;;;2.90;;
16673;SDS011;8450;52.654;10.326;2023-06-26T16:24:33;4.03;;;2.47;;
16673;SDS011;8450;52.654;10.326;2023-06-26T16:26:59;3.77;;;2.70;;
16673;SDS011;8450;52.654;10.326;2023-06-26T16:29:24;3.93;;;3.00;;
16673;SDS011;8450;52.654;10.326;2023-06-26T16:31:52;5.43;;;2.70;;
16673;SDS011;8450;52.654;10.326;2023-06-26T16:34:19;4.15;;;2.80;;
16673;SDS011;8450;52.654;10.326;2023-06-26T16:36:45;4.88;;;2.40;;
16673;SDS011;8450;52.654;10.326;2023-06-26T16:39:13;3.57;;;2.70;;
16673;SDS011;8450;52.654;10.326;2023-06-26T16:41:45;3.53;;;2.93;;
16673;SDS011;8450;52.654;10.326;2023-06-26T16:44:19;5.20;;;2.70;;
16673;SDS011;8450;52.654;10.326;2023-06-26T16:46:45;3.67;;;2.60;;
16673;SDS011;8450;52.654;10.326;2023-06-26T16:49:10;5.60;;;3.00;;
16673;SDS011;8450;52.654;10.326;2023-06-26T16:51:36;5.80;;;3.27;;
16673;SDS011;8450;52.654;10.326;2023-06-26T16:54:01;5.17;;;3.13;;
16673;SDS011;8450;52.654;10.326;2023-06-26T16:56:27;4.60;;;2.93;;
16673;SDS011;8450;52.654;10.326;2023-06-26T16:58:53;5.53;;;2.87;;
16673;SDS011;8450;52.654;10.326;2023-06-26T17:01:19;2.87;;;2.53;;
16673;SDS011;8450;52.654;10.326;2023-06-26T17:03:44;3.80;;;2.80;;
16673;SDS011;8450;52.654;10.326;2023-06-26T17:06:10;4.30;;;2.50;;
16673;SDS011;8450;52.654;10.326;2023-06-26T17:08:36;3.80;;;3.20;;
16673;SDS011;8450;52.654;10.326;2023-06-26T17:11:02;2.43;;;2.23;;
16673;SDS011;8450;52.654;10.326;2023-06-26T17:13:27;3.93;;;2.50;;
16673;SDS011;8450;52.654;10.326;2023-06-26T17:15:54;3.10;;;2.30;;
16673;SDS011;8450;52.654;10.326;2023-06-26T17:18:20;3.93;;;2.30;;
16673;SDS011;8450;52.654;10.326;2023-06-26T17:20:45;3.20;;;2.57;;
16673;SDS011;8450;52.654;10.326;2023-06-26T17:23:11;3.70;;;2.37;;
16673;SDS011;8450;52.654;10.326;2023-06-26T17:25:36;3.85;;;2.40;;
16673;SDS011;8450;52.654;10.326;2023-06-26T17:28:02;3.75;;;2.65;;
16673;SDS011;8450;52.654;10.326;2023-06-26T17:30:27;4.55;;;2.80;;
16673;SDS011;8450;52.654;10.326;2023-06-26T17:32:53;4.18;;;2.50;;
16673;SDS011;8450;52.654;10.326;2023-06-26T17:35:19;3.87;;;2.37;;
16673;SDS011;8450;52.654;10.326;2023-06-26T17:37:45;3.53;;;2.27;;
16673;SDS011;8450;52.654;10.326;2023-06-26T17:40:10;4.63;;;2.40;;
16673;SDS011;8450;52.654;10.326;2023-06-26T17:42:36;3.70;;;2.30;;
16673;SDS011;8450;52.654;10.326;2023-06-26T17:45:07;3.60;;;2.27;;
16673;SDS011;8450;52.654;10.326;2023-06-26T17:47:33;6.83;;;2.30;;
16673;SDS011;8450;52.654;10.326;2023-06-26T17:49:59;2.67;;;2.47;;
16673;SDS011;8450;52.654;10.326;2023-06-26T17:52:25;2.70;;;2.23;;
16673;SDS011;8450;52.654;10.326;2023-06-26T17:54:51;2.43;;;2.20;;
16673;SDS011;8450;52.654;10.326;2023-06-26T17:57:16;2.93;;;2.27;;
16673;SDS011;8450;52.654;10.326;2023-06-26T17:59:42;2.97;;;2.23;;
16673;SDS011;8450;52.654;10.326;2023-06-26T18:02:08;3.20;;;2.30;;
16673;SDS011;8450;52.654;10.326;2023-06-26T18:04:35;3.13;;;2.60;;
16673;SDS011;8450;52.654;10.326;2023-06-26T18:07:01;3.83;;;2.20;;
